sensor_id;sensor_type;location;lat;lon;timestamp;temperature;humidity
40291;DHT22;26000;48.304;13.626;2023-02-18T00:00:16;11.60;99.90
40291;DHT22;26000;48.304;13.626;2023-02-18T00:02:43;11.60;99.90
40291;DHT22;26000;48.304;13.626;2023-02-18T00:05:10;11.70;99.90
40291;DHT22;26000;48.304;13.626;2023-02-18T00:07:37;11.70;99.90
40291;DHT22;26000;48.304;13.626;2023-02-18T00:10:04;11.60;99.90
40291;DHT22;26000;48.304;13.626;2023-02-18T00:12:30;11.60;99.90
40291;DHT22;26000;48.304;13.626;2023-02-18T00:14:56;11.60;99.90
40291;DHT22;26000;48.304;13.626;2023-02-18T00:17:22;11.70;99.90
40291;DHT22;26000;48.304;13.626;2023-02-18T00:19:48;11.70;99.90
40291;DHT22;26000;48.304;13.626;2023-02-18T00:22:13;11.70;99.90
40291;DHT22;26000;48.304;13.626;2023-02-18T00:24:39;11.80;99.90
40291;DHT22;26000;48.304;13.626;2023-02-18T00:27:05;11.80;99.90
40291;DHT22;26000;48.304;13.626;2023-02-18T00:29:31;11.90;99.90
40291;DHT22;26000;48.304;13.626;2023-02-18T00:31:56;11.80;99.90
40291;DHT22;26000;48.304;13.626;2023-02-18T00:34:22;11.70;99.90
40291;DHT22;26000;48.304;13.626;2023-02-18T00:36:47;11.80;99.90
40291;DHT22;26000;48.304;13.626;2023-02-18T00:39:13;11.70;99.90
40291;DHT22;26000;48.304;13.626;2023-02-18T00:41:39;11.70;99.90
40291;DHT22;26000;48.304;13.626;2023-02-18T00:44:05;11.70;99.90
40291;DHT22;26000;48.304;13.626;2023-02-18T00:46:31;11.70;99.90
40291;DHT22;26000;48.304;13.626;2023-02-18T00:48:57;11.80;99.90
40291;DHT22;26000;48.304;13.626;2023-02-18T00:51:23;11.80;99.90
40291;DHT22;26000;48.304;13.626;2023-02-18T00:53:50;11.80;99.90
40291;DHT22;26000;48.304;13.626;2023-02-18T00:56:16;11.90;99.90
40291;DHT22;26000;48.304;13.626;2023-02-18T00:58:42;12.00;99.90
40291;DHT22;26000;48.304;13.626;2023-02-18T01:01:08;12.00;99.90
40291;DHT22;26000;48.304;13.626;2023-02-18T01:03:39;12.00;99.90
40291;DHT22;26000;48.304;13.626;2023-02-18T01:06:06;11.90;99.90
40291;DHT22;26000;48.304;13.626;2023-02-18T01:08:32;11.80;99.90
40291;DHT22;26000;48.304;13.626;2023-02-18T01:10:58;11.90;99.90
40291;DHT22;26000;48.304;13.626;2023-02-18T01:13:24;11.90;99.90
40291;DHT22;26000;48.304;13.626;2023-02-18T01:15:50;11.90;99.90
40291;DHT22;26000;48.304;13.626;2023-02-18T01:18:16;11.90;99.90
40291;DHT22;26000;48.304;13.626;2023-02-18T01:20:42;11.90;99.90
40291;DHT22;26000;48.304;13.626;2023-02-18T01:23:09;11.90;99.90
40291;DHT22;26000;48.304;13.626;2023-02-18T01:25:35;12.00;99.90
40291;DHT22;26000;48.304;13.626;2023-02-18T01:28:02;12.00;99.90
40291;DHT22;26000;48.304;13.626;2023-02-18T01:30:28;12.00;99.90
40291;DHT22;26000;48.304;13.626;2023-02-18T01:32:55;12.10;99.90
40291;DHT22;26000;48.304;13.626;2023-02-18T01:35:21;12.10;99.90
40291;DHT22;26000;48.304;13.626;2023-02-18T01:37:47;12.00;99.90
40291;DHT22;26000;48.304;13.626;2023-02-18T01:40:15;12.00;99.90
40291;DHT22;26000;48.304;13.626;2023-02-18T01:42:42;12.00;99.90
40291;DHT22;26000;48.304;13.626;2023-02-18T01:47:55;11.90;99.90
40291;DHT22;26000;48.304;13.626;2023-02-18T01:50:20;11.90;99.90
40291;DHT22;26000;48.304;13.626;2023-02-18T01:52:46;11.90;99.90
40291;DHT22;26000;48.304;13.626;2023-02-18T01:55:12;11.90;99.90
40291;DHT22;26000;48.304;13.626;2023-02-18T01:57:37;12.00;99.90
40291;DHT22;26000;48.304;13.626;2023-02-18T02:00:12;12.00;99.90
40291;DHT22;26000;48.304;13.626;2023-02-18T02:02:43;11.90;99.90
40291;DHT22;26000;48.304;13.626;2023-02-18T02:05:10;11.90;99.90
40291;DHT22;26000;48.304;13.626;2023-02-18T02:07:36;11.80;99.90
40291;DHT22;26000;48.304;13.626;2023-02-18T02:10:02;11.90;99.90
40291;DHT22;26000;48.304;13.626;2023-02-18T02:15:57;11.90;99.90
40291;DHT22;26000;48.304;13.626;2023-02-18T02:23:56;11.90;99.90
40291;DHT22;26000;48.304;13.626;2023-02-18T02:37:44;11.90;99.90
40291;DHT22;26000;48.304;13.626;2023-02-18T02:46:02;12.00;99.90
40291;DHT22;26000;48.304;13.626;2023-02-18T02:48:37;12.00;99.90
40291;DHT22;26000;48.304;13.626;2023-02-18T02:51:10;12.00;99.90
40291;DHT22;26000;48.304;13.626;2023-02-18T02:53:40;12.00;99.90
40291;DHT22;26000;48.304;13.626;2023-02-18T02:56:15;12.00;99.90
40291;DHT22;26000;48.304;13.626;2023-02-18T02:58:43;12.00;99.90
40291;DHT22;26000;48.304;13.626;2023-02-18T03:04:06;11.90;99.90
40291;DHT22;26000;48.304;13.626;2023-02-18T03:12:35;11.90;99.90
40291;DHT22;26000;48.304;13.626;2023-02-18T03:18:16;11.80;99.90
40291;DHT22;26000;48.304;13.626;2023-02-18T03:20:55;11.90;99.90
40291;DHT22;26000;48.304;13.626;2023-02-18T03:23:28;11.80;99.90
40291;DHT22;26000;48.304;13.626;2023-02-18T03:25:57;11.70;99.90
40291;DHT22;26000;48.304;13.626;2023-02-18T03:28:27;11.70;99.90
40291;DHT22;26000;48.304;13.626;2023-02-18T03:30:59;11.80;99.90
40291;DHT22;26000;48.304;13.626;2023-02-18T03:33:42;11.70;99.90
40291;DHT22;26000;48.304;13.626;2023-02-18T03:36:10;11.80;99.90
40291;DHT22;26000;48.304;13.626;2023-02-18T03:38:44;11.80;99.90
40291;DHT22;26000;48.304;13.626;2023-02-18T03:41:13;11.80;99.90
40291;DHT22;26000;48.304;13.626;2023-02-18T03:43:49;11.80;99.90
40291;DHT22;26000;48.304;13.626;2023-02-18T03:46:15;11.80;99.90
40291;DHT22;26000;48.304;13.626;2023-02-18T03:48:41;11.70;99.90
40291;DHT22;26000;48.304;13.626;2023-02-18T03:51:07;11.70;99.90
40291;DHT22;26000;48.304;13.626;2023-02-18T03:53:32;11.60;99.90
40291;DHT22;26000;48.304;13.626;2023-02-18T03:55:58;11.60;99.90
40291;DHT22;26000;48.304;13.626;2023-02-18T03:58:23;11.50;99.90
40291;DHT22;26000;48.304;13.626;2023-02-18T04:00:49;11.40;99.90
40291;DHT22;26000;48.304;13.626;2023-02-18T04:03:14;11.40;99.90
40291;DHT22;26000;48.304;13.626;2023-02-18T04:05:40;11.30;99.90
40291;DHT22;26000;48.304;13.626;2023-02-18T04:08:06;11.30;99.90
40291;DHT22;26000;48.304;13.626;2023-02-18T04:10:32;11.30;99.90
40291;DHT22;26000;48.304;13.626;2023-02-18T04:12:58;11.20;99.90
40291;DHT22;26000;48.304;13.626;2023-02-18T04:15:24;11.20;99.90
40291;DHT22;26000;48.304;13.626;2023-02-18T04:17:49;11.20;99.90
40291;DHT22;26000;48.304;13.626;2023-02-18T04:20:15;11.20;99.90
40291;DHT22;26000;48.304;13.626;2023-02-18T04:22:41;11.20;99.90
40291;DHT22;26000;48.304;13.626;2023-02-18T04:25:07;11.40;99.90
40291;DHT22;26000;48.304;13.626;2023-02-18T04:27:32;11.30;99.90
40291;DHT22;26000;48.304;13.626;2023-02-18T04:29:58;11.40;99.90
40291;DHT22;26000;48.304;13.626;2023-02-18T04:32:23;11.50;99.90
40291;DHT22;26000;48.304;13.626;2023-02-18T04:34:49;11.60;99.90
40291;DHT22;26000;48.304;13.626;2023-02-18T04:37:15;11.50;99.90
40291;DHT22;26000;48.304;13.626;2023-02-18T04:39:40;11.60;99.90
40291;DHT22;26000;48.304;13.626;2023-02-18T04:42:06;11.50;99.90
40291;DHT22;26000;48.304;13.626;2023-02-18T04:44:34;11.40;99.90
40291;DHT22;26000;48.304;13.626;2023-02-18T04:47:01;11.40;99.90
40291;DHT22;26000;48.304;13.626;2023-02-18T04:49:26;11.40;99.90
40291;DHT22;26000;48.304;13.626;2023-02-18T04:51:52;11.40;99.90
40291;DHT22;26000;48.304;13.626;2023-02-18T04:54:18;11.40;99.90
40291;DHT22;26000;48.304;13.626;2023-02-18T04:56:43;11.40;99.90
40291;DHT22;26000;48.304;13.626;2023-02-18T04:59:10;11.30;99.90
40291;DHT22;26000;48.304;13.626;2023-02-18T05:01:36;11.30;99.90
40291;DHT22;26000;48.304;13.626;2023-02-18T05:04:01;11.20;99.90
40291;DHT22;26000;48.304;13.626;2023-02-18T05:06:27;11.30;99.90
40291;DHT22;26000;48.304;13.626;2023-02-18T05:08:53;11.30;99.90
40291;DHT22;26000;48.304;13.626;2023-02-18T05:11:18;11.50;99.90
40291;DHT22;26000;48.304;13.626;2023-02-18T05:13:44;11.50;99.90
40291;DHT22;26000;48.304;13.626;2023-02-18T05:16:10;11.40;99.90
40291;DHT22;26000;48.304;13.626;2023-02-18T05:18:35;11.40;99.90
40291;DHT22;26000;48.304;13.626;2023-02-18T05:21:01;11.50;99.90
40291;DHT22;26000;48.304;13.626;2023-02-18T05:23:27;11.40;99.90
40291;DHT22;26000;48.304;13.626;2023-02-18T05:25:53;11.40;99.90
40291;DHT22;26000;48.304;13.626;2023-02-18T05:28:19;11.40;99.90
40291;DHT22;26000;48.304;13.626;2023-02-18T05:30:45;11.30;99.90
40291;DHT22;26000;48.304;13.626;2023-02-18T05:33:10;11.40;99.90
40291;DHT22;26000;48.304;13.626;2023-02-18T05:35:36;11.40;99.90
40291;DHT22;26000;48.304;13.626;2023-02-18T05:38:02;11.40;99.90
40291;DHT22;26000;48.304;13.626;2023-02-18T05:40:27;11.40;99.90
40291;DHT22;26000;48.304;13.626;2023-02-18T05:42:53;11.40;99.90
40291;DHT22;26000;48.304;13.626;2023-02-18T05:45:18;11.40;99.90
40291;DHT22;26000;48.304;13.626;2023-02-18T05:47:44;11.30;99.90
40291;DHT22;26000;48.304;13.626;2023-02-18T05:50:10;11.30;99.90
40291;DHT22;26000;48.304;13.626;2023-02-18T05:52:35;11.40;99.90
40291;DHT22;26000;48.304;13.626;2023-02-18T05:55:01;11.40;99.90
40291;DHT22;26000;48.304;13.626;2023-02-18T05:57:27;11.40;99.90
40291;DHT22;26000;48.304;13.626;2023-02-18T05:59:52;11.30;99.90
40291;DHT22;26000;48.304;13.626;2023-02-18T06:02:18;11.30;99.90
40291;DHT22;26000;48.304;13.626;2023-02-18T06:04:44;11.30;99.90
40291;DHT22;26000;48.304;13.626;2023-02-18T06:07:09;11.40;99.90
40291;DHT22;26000;48.304;13.626;2023-02-18T06:09:35;11.40;99.90
40291;DHT22;26000;48.304;13.626;2023-02-18T06:12:01;11.30;99.90
40291;DHT22;26000;48.304;13.626;2023-02-18T06:14:26;11.30;99.90
40291;DHT22;26000;48.304;13.626;2023-02-18T06:16:52;11.20;99.90
40291;DHT22;26000;48.304;13.626;2023-02-18T06:19:17;11.20;99.90
40291;DHT22;26000;48.304;13.626;2023-02-18T06:21:43;11.20;99.90
40291;DHT22;26000;48.304;13.626;2023-02-18T06:24:09;11.20;99.90
40291;DHT22;26000;48.304;13.626;2023-02-18T06:26:34;11.20;99.90
40291;DHT22;26000;48.304;13.626;2023-02-18T06:29:00;11.10;99.90
40291;DHT22;26000;48.304;13.626;2023-02-18T06:31:26;11.10;99.90
40291;DHT22;26000;48.304;13.626;2023-02-18T06:33:51;11.20;99.90
40291;DHT22;26000;48.304;13.626;2023-02-18T06:36:17;11.20;99.90
40291;DHT22;26000;48.304;13.626;2023-02-18T06:38:43;11.20;99.90
40291;DHT22;26000;48.304;13.626;2023-02-18T06:41:10;11.20;99.90
40291;DHT22;26000;48.304;13.626;2023-02-18T06:43:36;11.20;99.90
40291;DHT22;26000;48.304;13.626;2023-02-18T06:46:03;11.20;99.90
40291;DHT22;26000;48.304;13.626;2023-02-18T06:48:28;11.20;99.90
40291;DHT22;26000;48.304;13.626;2023-02-18T06:50:55;11.40;99.90
40291;DHT22;26000;48.304;13.626;2023-02-18T06:53:21;11.30;99.90
40291;DHT22;26000;48.304;13.626;2023-02-18T06:55:47;11.20;99.90
40291;DHT22;26000;48.304;13.626;2023-02-18T06:58:13;11.20;99.90
40291;DHT22;26000;48.304;13.626;2023-02-18T07:00:39;11.20;99.90
40291;DHT22;26000;48.304;13.626;2023-02-18T07:03:05;11.40;99.90
40291;DHT22;26000;48.304;13.626;2023-02-18T07:05:30;11.40;99.90
40291;DHT22;26000;48.304;13.626;2023-02-18T07:07:56;11.40;99.90
40291;DHT22;26000;48.304;13.626;2023-02-18T07:10:22;11.30;99.90
40291;DHT22;26000;48.304;13.626;2023-02-18T07:12:48;11.20;99.90
40291;DHT22;26000;48.304;13.626;2023-02-18T07:15:14;11.30;99.90
40291;DHT22;26000;48.304;13.626;2023-02-18T07:17:39;11.20;99.90
40291;DHT22;26000;48.304;13.626;2023-02-18T07:20:06;11.20;99.90
40291;DHT22;26000;48.304;13.626;2023-02-18T07:22:32;11.20;99.90
40291;DHT22;26000;48.304;13.626;2023-02-18T07:24:57;11.30;99.90
40291;DHT22;26000;48.304;13.626;2023-02-18T07:27:24;11.30;99.90
40291;DHT22;26000;48.304;13.626;2023-02-18T07:29:49;11.40;99.90
40291;DHT22;26000;48.304;13.626;2023-02-18T07:32:17;11.50;99.90
40291;DHT22;26000;48.304;13.626;2023-02-18T07:34:43;11.50;99.90
40291;DHT22;26000;48.304;13.626;2023-02-18T07:37:09;11.50;99.90
40291;DHT22;26000;48.304;13.626;2023-02-18T07:39:40;11.60;99.90
40291;DHT22;26000;48.304;13.626;2023-02-18T07:42:05;11.60;99.90
40291;DHT22;26000;48.304;13.626;2023-02-18T07:44:31;11.60;99.90
40291;DHT22;26000;48.304;13.626;2023-02-18T07:46:57;11.60;99.90
40291;DHT22;26000;48.304;13.626;2023-02-18T07:49:22;11.70;99.90
40291;DHT22;26000;48.304;13.626;2023-02-18T07:51:49;11.60;99.90
40291;DHT22;26000;48.304;13.626;2023-02-18T07:54:15;11.70;99.90
40291;DHT22;26000;48.304;13.626;2023-02-18T07:56:41;11.80;99.90
40291;DHT22;26000;48.304;13.626;2023-02-18T07:59:10;11.70;99.90
40291;DHT22;26000;48.304;13.626;2023-02-18T08:01:36;11.70;99.90
40291;DHT22;26000;48.304;13.626;2023-02-18T08:04:02;11.70;99.90
40291;DHT22;26000;48.304;13.626;2023-02-18T08:06:41;11.50;99.90
40291;DHT22;26000;48.304;13.626;2023-02-18T08:09:08;11.70;99.90
40291;DHT22;26000;48.304;13.626;2023-02-18T08:11:33;11.60;99.90
40291;DHT22;26000;48.304;13.626;2023-02-18T08:13:59;11.60;99.90
40291;DHT22;26000;48.304;13.626;2023-02-18T08:16:25;11.50;99.90
40291;DHT22;26000;48.304;13.626;2023-02-18T08:18:52;11.50;99.90
40291;DHT22;26000;48.304;13.626;2023-02-18T08:21:19;11.60;99.90
40291;DHT22;26000;48.304;13.626;2023-02-18T08:23:45;11.60;99.90
40291;DHT22;26000;48.304;13.626;2023-02-18T08:26:11;11.50;99.90
40291;DHT22;26000;48.304;13.626;2023-02-18T08:28:37;11.50;99.90
40291;DHT22;26000;48.304;13.626;2023-02-18T08:31:02;11.60;99.90
40291;DHT22;26000;48.304;13.626;2023-02-18T08:33:28;11.70;99.90
40291;DHT22;26000;48.304;13.626;2023-02-18T08:35:54;11.80;99.90
40291;DHT22;26000;48.304;13.626;2023-02-18T08:38:21;11.70;99.90
40291;DHT22;26000;48.304;13.626;2023-02-18T08:40:47;11.80;99.90
40291;DHT22;26000;48.304;13.626;2023-02-18T08:43:14;11.80;99.90
40291;DHT22;26000;48.304;13.626;2023-02-18T08:45:40;11.90;99.90
40291;DHT22;26000;48.304;13.626;2023-02-18T08:48:07;11.90;99.90
40291;DHT22;26000;48.304;13.626;2023-02-18T08:50:34;12.00;99.90
40291;DHT22;26000;48.304;13.626;2023-02-18T08:52:59;12.00;99.90
40291;DHT22;26000;48.304;13.626;2023-02-18T08:55:30;12.00;99.90
40291;DHT22;26000;48.304;13.626;2023-02-18T08:57:56;12.10;99.90
40291;DHT22;26000;48.304;13.626;2023-02-18T09:00:22;12.10;99.90
40291;DHT22;26000;48.304;13.626;2023-02-18T09:02:48;12.10;99.90
40291;DHT22;26000;48.304;13.626;2023-02-18T09:05:13;12.10;99.90
40291;DHT22;26000;48.304;13.626;2023-02-18T09:07:39;12.10;99.90
40291;DHT22;26000;48.304;13.626;2023-02-18T09:10:06;12.20;99.90
40291;DHT22;26000;48.304;13.626;2023-02-18T09:12:32;12.30;99.90
40291;DHT22;26000;48.304;13.626;2023-02-18T09:14:58;12.30;99.90
40291;DHT22;26000;48.304;13.626;2023-02-18T09:17:25;12.30;99.90
40291;DHT22;26000;48.304;13.626;2023-02-18T09:19:51;12.30;99.90
40291;DHT22;26000;48.304;13.626;2023-02-18T09:22:18;12.30;99.90
40291;DHT22;26000;48.304;13.626;2023-02-18T09:24:43;12.30;99.90
40291;DHT22;26000;48.304;13.626;2023-02-18T09:27:09;12.40;99.90
40291;DHT22;26000;48.304;13.626;2023-02-18T09:29:38;12.40;99.90
40291;DHT22;26000;48.304;13.626;2023-02-18T09:32:04;12.50;99.90
40291;DHT22;26000;48.304;13.626;2023-02-18T09:34:30;12.60;99.90
40291;DHT22;26000;48.304;13.626;2023-02-18T09:36:56;12.70;99.90
40291;DHT22;26000;48.304;13.626;2023-02-18T09:39:22;12.70;99.90
40291;DHT22;26000;48.304;13.626;2023-02-18T09:41:53;12.80;99.90
40291;DHT22;26000;48.304;13.626;2023-02-18T09:46:58;13.00;99.90
40291;DHT22;26000;48.304;13.626;2023-02-18T09:49:28;13.10;99.90
40291;DHT22;26000;48.304;13.626;2023-02-18T09:51:55;13.20;99.90
40291;DHT22;26000;48.304;13.626;2023-02-18T09:54:21;13.40;99.90
40291;DHT22;26000;48.304;13.626;2023-02-18T09:56:48;13.60;99.90
40291;DHT22;26000;48.304;13.626;2023-02-18T09:59:17;13.70;99.90
40291;DHT22;26000;48.304;13.626;2023-02-18T10:01:45;13.80;99.90
40291;DHT22;26000;48.304;13.626;2023-02-18T10:04:30;13.90;99.90
40291;DHT22;26000;48.304;13.626;2023-02-18T10:07:00;14.00;99.90
40291;DHT22;26000;48.304;13.626;2023-02-18T10:09:32;14.30;99.90
40291;DHT22;26000;48.304;13.626;2023-02-18T10:12:18;14.70;99.90
40291;DHT22;26000;48.304;13.626;2023-02-18T10:14:49;15.10;99.90
40291;DHT22;26000;48.304;13.626;2023-02-18T10:17:16;15.20;99.90
40291;DHT22;26000;48.304;13.626;2023-02-18T10:19:45;15.10;99.90
40291;DHT22;26000;48.304;13.626;2023-02-18T10:22:13;15.00;99.90
40291;DHT22;26000;48.304;13.626;2023-02-18T10:24:45;14.90;99.90
40291;DHT22;26000;48.304;13.626;2023-02-18T10:27:20;14.80;99.90
40291;DHT22;26000;48.304;13.626;2023-02-18T10:29:47;14.60;99.90
40291;DHT22;26000;48.304;13.626;2023-02-18T10:32:23;14.70;99.90
40291;DHT22;26000;48.304;13.626;2023-02-18T10:49:53;14.90;99.90
40291;DHT22;26000;48.304;13.626;2023-02-18T10:52:20;15.10;99.90
40291;DHT22;26000;48.304;13.626;2023-02-18T10:55:02;15.20;99.90
40291;DHT22;26000;48.304;13.626;2023-02-18T10:57:31;15.40;99.90
40291;DHT22;26000;48.304;13.626;2023-02-18T11:00:42;15.70;99.90
40291;DHT22;26000;48.304;13.626;2023-02-18T11:03:22;16.10;99.90
40291;DHT22;26000;48.304;13.626;2023-02-18T11:05:51;16.50;99.90
40291;DHT22;26000;48.304;13.626;2023-02-18T11:08:22;16.50;99.90
40291;DHT22;26000;48.304;13.626;2023-02-18T11:10:49;16.50;99.90
40291;DHT22;26000;48.304;13.626;2023-02-18T11:13:21;16.50;99.90
40291;DHT22;26000;48.304;13.626;2023-02-18T11:16:01;16.70;99.90
40291;DHT22;26000;48.304;13.626;2023-02-18T11:18:38;16.50;99.90
40291;DHT22;26000;48.304;13.626;2023-02-18T11:23:48;16.20;99.90
40291;DHT22;26000;48.304;13.626;2023-02-18T11:26:16;16.30;99.90
40291;DHT22;26000;48.304;13.626;2023-02-18T11:28:45;16.30;99.90
40291;DHT22;26000;48.304;13.626;2023-02-18T11:31:39;16.20;99.90
40291;DHT22;26000;48.304;13.626;2023-02-18T11:34:05;15.90;99.90
40291;DHT22;26000;48.304;13.626;2023-02-18T11:36:35;15.80;99.90
40291;DHT22;26000;48.304;13.626;2023-02-18T11:39:05;15.70;99.90
40291;DHT22;26000;48.304;13.626;2023-02-18T11:41:38;15.80;99.90
40291;DHT22;26000;48.304;13.626;2023-02-18T11:44:41;15.90;99.90
40291;DHT22;26000;48.304;13.626;2023-02-18T11:49:42;16.20;99.90
40291;DHT22;26000;48.304;13.626;2023-02-18T11:52:22;16.30;99.90
40291;DHT22;26000;48.304;13.626;2023-02-18T11:57:24;16.60;99.90
40291;DHT22;26000;48.304;13.626;2023-02-18T11:59:51;16.80;99.90
40291;DHT22;26000;48.304;13.626;2023-02-18T12:02:37;16.90;99.90
40291;DHT22;26000;48.304;13.626;2023-02-18T12:05:22;16.90;99.90
40291;DHT22;26000;48.304;13.626;2023-02-18T12:08:13;16.80;99.90
40291;DHT22;26000;48.304;13.626;2023-02-18T12:10:51;16.90;99.90
40291;DHT22;26000;48.304;13.626;2023-02-18T12:13:25;17.00;99.90
40291;DHT22;26000;48.304;13.626;2023-02-18T12:29:58;16.80;99.90
40291;DHT22;26000;48.304;13.626;2023-02-18T12:51:35;16.70;99.90
40291;DHT22;26000;48.304;13.626;2023-02-18T13:02:44;16.70;99.90
40291;DHT22;26000;48.304;13.626;2023-02-18T13:05:42;16.80;99.90
40291;DHT22;26000;48.304;13.626;2023-02-18T13:16:34;16.70;99.90
40291;DHT22;26000;48.304;13.626;2023-02-18T13:21:47;16.50;99.90
40291;DHT22;26000;48.304;13.626;2023-02-18T13:24:23;16.30;99.90
40291;DHT22;26000;48.304;13.626;2023-02-18T13:26:55;16.20;99.90
40291;DHT22;26000;48.304;13.626;2023-02-18T13:29:32;16.00;99.90
40291;DHT22;26000;48.304;13.626;2023-02-18T13:40:28;15.90;99.90
40291;DHT22;26000;48.304;13.626;2023-02-18T13:43:18;15.90;99.90
40291;DHT22;26000;48.304;13.626;2023-02-18T13:46:14;15.90;99.90
40291;DHT22;26000;48.304;13.626;2023-02-18T13:51:31;15.90;99.90
40291;DHT22;26000;48.304;13.626;2023-02-18T13:54:13;15.80;99.90
40291;DHT22;26000;48.304;13.626;2023-02-18T13:56:45;15.70;99.90
40291;DHT22;26000;48.304;13.626;2023-02-18T13:59:24;15.60;99.90
40291;DHT22;26000;48.304;13.626;2023-02-18T14:01:52;15.60;99.90
40291;DHT22;26000;48.304;13.626;2023-02-18T14:25:53;15.40;99.90
40291;DHT22;26000;48.304;13.626;2023-02-18T14:33:38;15.50;99.90
40291;DHT22;26000;48.304;13.626;2023-02-18T14:41:31;15.50;99.90
40291;DHT22;26000;48.304;13.626;2023-02-18T14:44:10;15.50;99.90
40291;DHT22;26000;48.304;13.626;2023-02-18T14:49:35;15.40;99.90
40291;DHT22;26000;48.304;13.626;2023-02-18T14:52:03;15.30;99.90
40291;DHT22;26000;48.304;13.626;2023-02-18T14:54:30;15.30;99.90
40291;DHT22;26000;48.304;13.626;2023-02-18T14:57:03;15.30;99.90
40291;DHT22;26000;48.304;13.626;2023-02-18T14:59:42;15.20;99.90
40291;DHT22;26000;48.304;13.626;2023-02-18T15:02:21;15.10;99.90
40291;DHT22;26000;48.304;13.626;2023-02-18T15:04:48;15.10;99.90
40291;DHT22;26000;48.304;13.626;2023-02-18T15:07:20;15.00;99.90
40291;DHT22;26000;48.304;13.626;2023-02-18T15:09:49;15.00;99.90
40291;DHT22;26000;48.304;13.626;2023-02-18T15:12:19;15.00;99.90
40291;DHT22;26000;48.304;13.626;2023-02-18T15:14:47;14.90;99.90
40291;DHT22;26000;48.304;13.626;2023-02-18T15:17:23;14.80;99.90
40291;DHT22;26000;48.304;13.626;2023-02-18T15:19:54;14.70;99.90
40291;DHT22;26000;48.304;13.626;2023-02-18T15:22:22;14.70;99.90
40291;DHT22;26000;48.304;13.626;2023-02-18T15:24:50;14.70;99.90
40291;DHT22;26000;48.304;13.626;2023-02-18T15:27:20;14.70;99.90
40291;DHT22;26000;48.304;13.626;2023-02-18T15:29:51;14.60;99.90
40291;DHT22;26000;48.304;13.626;2023-02-18T15:32:25;14.50;99.90
40291;DHT22;26000;48.304;13.626;2023-02-18T15:34:55;14.60;99.90
40291;DHT22;26000;48.304;13.626;2023-02-18T15:37:21;14.50;99.90
40291;DHT22;26000;48.304;13.626;2023-02-18T15:39:46;14.50;99.90
40291;DHT22;26000;48.304;13.626;2023-02-18T15:42:24;14.50;99.90
40291;DHT22;26000;48.304;13.626;2023-02-18T15:45:00;14.30;99.90
40291;DHT22;26000;48.304;13.626;2023-02-18T15:47:27;14.30;99.90
40291;DHT22;26000;48.304;13.626;2023-02-18T15:49:55;14.40;99.90
40291;DHT22;26000;48.304;13.626;2023-02-18T15:52:26;14.40;99.90
40291;DHT22;26000;48.304;13.626;2023-02-18T15:54:54;14.40;99.90
40291;DHT22;26000;48.304;13.626;2023-02-18T15:57:27;14.30;99.90
40291;DHT22;26000;48.304;13.626;2023-02-18T15:59:58;14.30;99.90
40291;DHT22;26000;48.304;13.626;2023-02-18T16:02:28;14.30;99.90
40291;DHT22;26000;48.304;13.626;2023-02-18T16:04:58;14.20;99.90
40291;DHT22;26000;48.304;13.626;2023-02-18T16:07:31;14.20;99.90
40291;DHT22;26000;48.304;13.626;2023-02-18T16:13:01;14.10;99.90
40291;DHT22;26000;48.304;13.626;2023-02-18T16:15:36;14.00;99.90
40291;DHT22;26000;48.304;13.626;2023-02-18T16:18:02;14.00;99.90
40291;DHT22;26000;48.304;13.626;2023-02-18T16:20:32;14.00;99.90
40291;DHT22;26000;48.304;13.626;2023-02-18T16:23:00;14.00;99.90
40291;DHT22;26000;48.304;13.626;2023-02-18T16:25:43;14.00;99.90
40291;DHT22;26000;48.304;13.626;2023-02-18T16:28:25;13.90;99.90
40291;DHT22;26000;48.304;13.626;2023-02-18T16:30:52;13.90;99.90
40291;DHT22;26000;48.304;13.626;2023-02-18T16:33:17;13.90;99.90
40291;DHT22;26000;48.304;13.626;2023-02-18T16:35:44;13.80;99.90
40291;DHT22;26000;48.304;13.626;2023-02-18T16:38:15;13.90;99.90
40291;DHT22;26000;48.304;13.626;2023-02-18T16:40:41;13.80;99.90
40291;DHT22;26000;48.304;13.626;2023-02-18T16:43:12;13.80;99.90
40291;DHT22;26000;48.304;13.626;2023-02-18T16:45:51;13.80;99.90
40291;DHT22;26000;48.304;13.626;2023-02-18T16:50:51;13.80;99.90
40291;DHT22;26000;48.304;13.626;2023-02-18T16:53:17;13.80;99.90
40291;DHT22;26000;48.304;13.626;2023-02-18T16:55:44;13.70;99.90
40291;DHT22;26000;48.304;13.626;2023-02-18T16:58:10;13.70;99.90
40291;DHT22;26000;48.304;13.626;2023-02-18T17:00:36;13.80;99.90
40291;DHT22;26000;48.304;13.626;2023-02-18T17:03:03;13.80;99.90
40291;DHT22;26000;48.304;13.626;2023-02-18T17:05:31;13.70;99.90
40291;DHT22;26000;48.304;13.626;2023-02-18T17:08:22;13.70;99.90
40291;DHT22;26000;48.304;13.626;2023-02-18T17:10:56;13.70;99.90
40291;DHT22;26000;48.304;13.626;2023-02-18T17:13:27;13.70;99.90
40291;DHT22;26000;48.304;13.626;2023-02-18T17:15:55;13.60;99.90
40291;DHT22;26000;48.304;13.626;2023-02-18T17:18:21;13.70;99.90
40291;DHT22;26000;48.304;13.626;2023-02-18T17:20:49;13.60;99.90
40291;DHT22;26000;48.304;13.626;2023-02-18T17:23:16;13.50;99.90
40291;DHT22;26000;48.304;13.626;2023-02-18T17:25:43;13.50;99.90
40291;DHT22;26000;48.304;13.626;2023-02-18T17:28:10;13.60;99.90
40291;DHT22;26000;48.304;13.626;2023-02-18T17:30:37;13.50;99.90
40291;DHT22;26000;48.304;13.626;2023-02-18T17:33:04;13.50;99.90
40291;DHT22;26000;48.304;13.626;2023-02-18T17:35:30;13.50;99.90
40291;DHT22;26000;48.304;13.626;2023-02-18T17:37:56;13.60;99.90
40291;DHT22;26000;48.304;13.626;2023-02-18T17:40:24;13.50;99.90
40291;DHT22;26000;48.304;13.626;2023-02-18T17:42:50;13.40;99.90
40291;DHT22;26000;48.304;13.626;2023-02-18T17:47:55;13.60;99.90
40291;DHT22;26000;48.304;13.626;2023-02-18T17:50:20;13.60;99.90
40291;DHT22;26000;48.304;13.626;2023-02-18T17:52:46;13.50;99.90
40291;DHT22;26000;48.304;13.626;2023-02-18T17:57:43;13.50;99.90
40291;DHT22;26000;48.304;13.626;2023-02-18T18:00:14;13.50;99.90
40291;DHT22;26000;48.304;13.626;2023-02-18T18:02:40;13.50;99.90
40291;DHT22;26000;48.304;13.626;2023-02-18T18:05:09;13.40;99.90
40291;DHT22;26000;48.304;13.626;2023-02-18T18:07:37;13.40;99.90
40291;DHT22;26000;48.304;13.626;2023-02-18T18:10:03;13.50;99.90
40291;DHT22;26000;48.304;13.626;2023-02-18T18:12:29;13.50;99.90
40291;DHT22;26000;48.304;13.626;2023-02-18T18:14:55;13.40;99.90
40291;DHT22;26000;48.304;13.626;2023-02-18T18:17:20;13.30;99.90
40291;DHT22;26000;48.304;13.626;2023-02-18T18:19:46;13.30;99.90